Historique des mesures à Cassis (13260), France
Quotidien Résumé Avril 16, 2017 Unités:  US    Métrique   Métrique/US
« Précédent (Jour)
Suivant (Jour) »
Quotidien Hebdomadaire Mensuel Annuel Période au choix
  Maximum: Minimum: Moyenne:
Température: 32 °F 55.2 °F 61 °F
Point de rosée: 32 °F 33.4 °F 42.1 °F
Humidité: Humidity % 33 % 48 %
Vitesse du vent: WindSpeedKMH mph 9.0 mph 20.1 mph
Rafales: WindSpeedGustKMH mph - -
Vent:- - SSW
Pression: 0 in 29.8 in -
Précipitations: 0 in    
Historical Graphs
 
 
Mesures pour : Avril 16, 2017
Heure Temperature Point de rosée Pression Vent Vitesse du vent Rafales Humidité Pluie (par heure) Conditions
32 °F 32 °F 0 in Calm     Humidity % 0 in SoftwareType W/m2
00:11 58.6 °F 41.2 °F 29.9 in North 14.3 mph 36.7 mph 52 % 0 in open2300-1.11 W/m2
01:11 57.4 °F 40.8 °F 29.9 in North 26.2 mph 26.2 mph 54 % 0 in open2300-1.11 W/m2
02:11 56.8 °F 41.4 °F 29.9 in NNW 14.8 mph 35.6 mph 56 % 0 in open2300-1.11 W/m2
03:11 56.5 °F 41.9 °F 29.9 in WNW 18.0 mph 18.0 mph 58 % 0 in open2300-1.11 W/m2
04:11 56.1 °F 42.4 °F 29.9 in NW 31.4 mph 31.4 mph 60 % 0 in open2300-1.11 W/m2
05:11 56.1 °F 42.8 °F 29.9 in WSW 11.9 mph 11.9 mph 61 % 0 in open2300-1.11 W/m2
06:11 56.1 °F 43.2 °F 29.9 in North 14.3 mph 14.3 mph 62 % 0 in open2300-1.11 W/m2
07:11 55.2 °F 43.2 °F 29.9 in NNE 9.0 mph 19.5 mph 64 % 0 in open2300-1.11 W/m2
08:11 56.3 °F 43.9 °F 29.9 in North 9.0 mph 9.0 mph 63 % 0 in open2300-1.11 W/m2
09:10 57.6 °F 44.2 °F 29.9 in North 10.8 mph 16.3 mph 61 % 0 in open2300-1.11 W/m2
10:11 59.5 °F 44.8 °F 29.9 in North 20.9 mph 34.1 mph 58 % 0 in open2300-1.11 W/m2
11:11 64 °F 45.5 °F 29.9 in NW 32.3 mph 38.9 mph 51 % 0 in open2300-1.11 W/m2
12:11 65.5 °F 45.1 °F 29.9 in NW 34.6 mph 34.6 mph 48 % 0 in open2300-1.11 W/m2
13:11 67.6 °F 45.5 °F 29.9 in WNW 33.5 mph 33.5 mph 45 % 0 in open2300-1.11 W/m2
14:11 68.7 °F 45.9 °F 29.9 in NW 20.9 mph 22.4 mph 44 % 0 in open2300-1.11 W/m2
15:11 69.4 °F 45.3 °F 29.9 in NNW 17.2 mph 24.1 mph 42 % 0 in open2300-1.11 W/m2
16:11 70.2 °F 45.3 °F 29.8 in NNE 10.1 mph 11.1 mph 41 % 0 in open2300-1.11 W/m2
17:11 69.6 °F 44.8 °F 29.8 in WNW 36.0 mph 36.0 mph 41 % 0 in open2300-1.11 W/m2
18:11 68.4 °F 43.2 °F 29.8 in NW 16.9 mph 30.6 mph 40 % 0 in open2300-1.11 W/m2
19:10 67.3 °F 42.3 °F 29.8 in WNW 18.3 mph 18.3 mph 40 % 0 in open2300-1.11 W/m2
20:11 65.3 °F 41 °F 29.8 in NW 17.7 mph 31.4 mph 41 % 0 in open2300-1.11 W/m2
21:11 64.6 °F 38.3 °F 29.8 in NW 28.5 mph 28.5 mph 38 % 0 in open2300-1.11 W/m2
22:11 64.2 °F 35.8 °F 29.8 in NNW 29.4 mph 29.4 mph 35 % 0 in open2300-1.11 W/m2
23:11 63.3 °F 33.4 °F 29.8 in WNW 25.3 mph 43.1 mph 33 % 0 in open2300-1.11 W/m2
Observations météo à CASSIS
WU-History script by Weather Underground - 1 mb